»·PEaware :: WAT542 KSEA-KSNA

WAT542 :: KSEA-KSNA

FLIGHT INFORMATION

Flight Status: Arrived
Operator:
Walker Air Transport
More flights by this operator :: More flights under this callsign
Pilot: Andrew C. (28419)
Aircraft: Unknown
(A21N)
More flights by this aircraft type
Origin: KSEA Seattle-Tacoma Intl
United States
Destination: KSNA John Wayne-Orange Co
United States
More flights between these airports :: More routes between these airports
Route: SUMMA2 SUMMA Q9 SUNBE FRA REBRG OHSEA2
File this flight plan on PilotEdge
Remarks: RMK / SIMBRIEF
Altitude:
(Current/Filed)
35,000ft
Speed:
(Current/Filed)
435kts
Departed: 14-Feb-21 07:21 PM
Arrived: 14-Feb-21 09:24 PM
Distance/Time
Traveled:
850nm/2:03
Distance/Time
To Go:
Arrived

Flight Plot

Page will automatically refresh every two minutes.

Flight plan parsing failed; only flown route is shown


Map Options




Map Legend


Flown Route
Filed Route
Departure Airport
Arrival Airport
Navaid (VOR, NDB)
Fix

Horizontal Profiles

Position Reports

Time Latitude Longitude Heading Altitude Ground
Speed
14-Feb-21 18:50 47.441889 -122.301846 40 478ft 0kts
14-Feb-21 18:51 47.441889 -122.301846 40 478ft 0kts
14-Feb-21 18:52 47.441889 -122.301846 40 478ft 0kts
14-Feb-21 18:53 47.441889 -122.301846 40 478ft 0kts
14-Feb-21 18:54 47.441889 -122.301846 40 478ft 0kts
14-Feb-21 18:55 47.441889 -122.301846 40 478ft 0kts
14-Feb-21 18:56 47.441889 -122.301846 40 478ft 0kts
14-Feb-21 18:57 47.441889 -122.301846 40 478ft 0kts
14-Feb-21 18:58 47.441889 -122.301846 40 478ft 0kts
14-Feb-21 19:00 47.441889 -122.301846 40 478ft 0kts
14-Feb-21 19:01 47.441889 -122.301846 40 478ft 0kts
14-Feb-21 19:02 47.441889 -122.301846 40 478ft 0kts
14-Feb-21 19:03 47.441889 -122.301846 40 478ft 0kts
14-Feb-21 19:04 47.441889 -122.301846 40 478ft 0kts
14-Feb-21 19:05 47.441889 -122.301846 40 478ft 0kts
14-Feb-21 19:06 47.441889 -122.301847 40 478ft 0kts
14-Feb-21 19:07 47.441889 -122.301847 40 478ft 0kts
14-Feb-21 19:08 47.441889 -122.301847 40 478ft 0kts
14-Feb-21 19:09 47.441889 -122.301847 40 478ft 0kts
14-Feb-21 19:10 47.441889 -122.301847 40 478ft 0kts
14-Feb-21 19:11 47.441552 -122.302079 342 478ft 2kts
14-Feb-21 19:12 47.441378 -122.302485 198 478ft 2kts
14-Feb-21 19:13 47.441272 -122.302488 177 478ft 0kts
14-Feb-21 19:14 47.440174 -122.303090 232 478ft 12kts
14-Feb-21 19:15 47.441129 -122.306364 2 478ft 10kts
14-Feb-21 19:15 47.444421 -122.306355 0 478ft 17kts
14-Feb-21 19:17 47.451004 -122.306284 3 478ft 22kts
14-Feb-21 19:18 47.456770 -122.306209 0 478ft 21kts
14-Feb-21 19:18 47.462108 -122.306125 359 478ft 24kts
14-Feb-21 19:20 47.463196 -122.307758 178 478ft 4kts
14-Feb-21 19:20 47.442952 -122.308032 177 1095ft 170kts
14-Feb-21 19:22 47.382093 -122.326627 180 3644ft 233kts
14-Feb-21 19:22 47.324895 -122.316209 178 6033ft 251kts
14-Feb-21 19:23 47.254462 -122.309454 179 9034ft 261kts
14-Feb-21 19:25 47.169463 -122.256538 167 11141ft 316kts
14-Feb-21 19:25 47.096782 -122.222899 166 12926ft 337kts
14-Feb-21 19:26 47.004803 -122.177826 167 14868ft 362kts
14-Feb-21 19:27 46.907107 -122.129664 167 16508ft 378kts
14-Feb-21 19:28 46.805521 -122.079844 168 18414ft 391kts
14-Feb-21 19:29 46.699655 -122.028101 169 20139ft 404kts
14-Feb-21 19:30 46.590826 -121.981134 178 21696ft 409kts
14-Feb-21 19:31 46.477041 -121.953793 179 23189ft 419kts
14-Feb-21 19:32 46.360817 -121.925781 180 24588ft 430kts
14-Feb-21 19:33 46.241706 -121.897037 181 25895ft 440kts
14-Feb-21 19:34 46.119715 -121.867816 182 27113ft 450kts
14-Feb-21 19:35 45.995076 -121.838137 183 28228ft 460kts
14-Feb-21 19:36 45.867733 -121.807893 184 29272ft 469kts
14-Feb-21 19:37 45.739146 -121.777391 185 30469ft 469kts
14-Feb-21 19:38 45.610046 -121.747048 186 31530ft 471kts
14-Feb-21 19:39 45.479928 -121.716644 186 32464ft 476kts
14-Feb-21 19:40 45.349188 -121.686178 187 33428ft 479kts
14-Feb-21 19:41 45.217358 -121.655668 187 34412ft 480kts
14-Feb-21 19:42 45.085142 -121.625353 185 35038ft 490kts
14-Feb-21 19:43 44.950373 -121.594230 185 34994ft 491kts
14-Feb-21 19:44 44.815243 -121.563316 185 34950ft 493kts
14-Feb-21 19:45 44.680506 -121.532641 185 34943ft 493kts
14-Feb-21 19:46 44.545225 -121.501994 185 34943ft 493kts
14-Feb-21 19:47 44.409947 -121.471505 184 34938ft 492kts
14-Feb-21 19:48 44.274580 -121.441098 184 34917ft 492kts
14-Feb-21 19:49 44.139662 -121.410943 185 34907ft 493kts
14-Feb-21 19:50 44.004356 -121.380831 185 34906ft 493kts
14-Feb-21 19:51 43.868506 -121.350673 184 34903ft 495kts
14-Feb-21 19:52 43.733475 -121.320422 184 34906ft 494kts
14-Feb-21 19:53 43.597330 -121.290328 184 34919ft 495kts
14-Feb-21 19:54 43.461927 -121.260582 184 34920ft 496kts
14-Feb-21 19:55 43.325799 -121.230754 184 34921ft 495kts
14-Feb-21 19:56 43.189740 -121.201132 183 34922ft 497kts
14-Feb-21 19:57 43.053082 -121.171503 183 34932ft 497kts
14-Feb-21 19:58 42.916999 -121.142065 183 34947ft 497kts
14-Feb-21 19:59 42.780356 -121.112679 182 34949ft 497kts
14-Feb-21 20:00 42.643787 -121.083452 182 34952ft 498kts
14-Feb-21 20:01 42.507311 -121.054327 182 34963ft 498kts
14-Feb-21 20:02 42.370613 -121.025359 182 34968ft 499kts
14-Feb-21 20:03 42.233748 -120.996421 182 34969ft 499kts
14-Feb-21 20:04 42.096334 -120.967543 182 34969ft 500kts
14-Feb-21 20:05 41.959468 -120.938904 181 34978ft 500kts
14-Feb-21 20:06 41.822270 -120.910223 181 34999ft 500kts
14-Feb-21 20:07 41.684890 -120.881672 181 35006ft 499kts
14-Feb-21 20:08 41.548005 -120.853383 181 35006ft 499kts
14-Feb-21 20:09 41.410804 -120.825142 181 35006ft 499kts
14-Feb-21 20:10 41.273467 -120.796979 181 35006ft 499kts
14-Feb-21 20:11 41.136669 -120.769036 181 35003ft 499kts
14-Feb-21 20:12 40.999938 -120.740607 178 35006ft 500kts
14-Feb-21 20:13 40.864052 -120.698885 175 35005ft 504kts
14-Feb-21 20:14 40.727974 -120.656614 175 35006ft 503kts
14-Feb-21 20:15 40.591625 -120.614646 175 35006ft 505kts
14-Feb-21 20:16 40.455293 -120.572793 175 35006ft 505kts
14-Feb-21 20:17 40.318333 -120.530963 175 35004ft 505kts
14-Feb-21 20:18 40.181510 -120.489335 175 35015ft 506kts
14-Feb-21 20:19 40.044821 -120.447898 175 35029ft 506kts
14-Feb-21 20:20 39.907714 -120.406559 175 35033ft 507kts
14-Feb-21 20:21 39.770523 -120.365355 175 35032ft 507kts
14-Feb-21 20:22 39.633923 -120.324104 175 35033ft 506kts
14-Feb-21 20:23 39.496979 -120.283096 176 35055ft 505kts
14-Feb-21 20:24 39.360270 -120.242523 176 35068ft 504kts
14-Feb-21 20:25 39.223689 -120.202186 175 35069ft 505kts
14-Feb-21 20:26 39.086702 -120.161818 175 35064ft 504kts
14-Feb-21 20:27 38.950440 -120.121883 175 35061ft 504kts
14-Feb-21 20:28 38.813595 -120.081938 175 35066ft 505kts
14-Feb-21 20:29 38.677054 -120.042214 174 35061ft 504kts
14-Feb-21 20:30 38.540408 -120.002582 174 35052ft 505kts
14-Feb-21 20:31 38.402740 -119.962869 174 35045ft 507kts
14-Feb-21 20:32 38.265331 -119.923341 173 35049ft 508kts
14-Feb-21 20:33 38.127873 -119.883924 173 35059ft 507kts
14-Feb-21 20:34 37.990764 -119.844781 173 35061ft 507kts
14-Feb-21 20:35 37.854315 -119.806001 174 35061ft 507kts
14-Feb-21 20:36 37.716637 -119.767046 173 35085ft 507kts
14-Feb-21 20:37 37.578972 -119.728202 173 35097ft 507kts
14-Feb-21 20:38 37.441997 -119.689666 173 35098ft 506kts
14-Feb-21 20:39 37.304659 -119.651194 173 35098ft 506kts
14-Feb-21 20:40 37.167313 -119.612782 173 35108ft 506kts
14-Feb-21 20:41 37.030229 -119.595468 189 35135ft 490kts
14-Feb-21 20:42 36.894145 -119.599087 189 35141ft 489kts
14-Feb-21 20:43 36.758360 -119.601453 189 35143ft 488kts
14-Feb-21 20:44 36.622695 -119.603785 188 35143ft 488kts
14-Feb-21 20:45 36.487619 -119.606092 188 35143ft 487kts
14-Feb-21 20:46 36.352383 -119.608392 188 35143ft 486kts
14-Feb-21 20:47 36.217229 -119.610658 188 35143ft 486kts
14-Feb-21 20:48 36.081612 -119.612938 188 35143ft 490kts
14-Feb-21 20:49 35.946504 -119.621144 198 35142ft 478kts
14-Feb-21 20:50 35.815763 -119.648301 198 35142ft 477kts
14-Feb-21 20:51 35.683861 -119.668864 185 35143ft 491kts
14-Feb-21 20:52 35.551882 -119.624265 156 35144ft 503kts
14-Feb-21 20:53 35.425304 -119.551920 157 35140ft 502kts
14-Feb-21 20:54 35.297988 -119.481796 157 35125ft 501kts
14-Feb-21 20:56 35.171297 -119.412387 157 35119ft 500kts
14-Feb-21 20:57 35.044691 -119.343247 158 35116ft 499kts
14-Feb-21 20:58 34.918533 -119.274128 158 34297ft 495kts
14-Feb-21 20:59 34.791580 -119.205492 157 32172ft 500kts
14-Feb-21 21:00 34.664683 -119.130404 152 29829ft 505kts
14-Feb-21 21:01 34.540296 -119.050734 152 27295ft 506kts
14-Feb-21 21:02 34.421978 -118.973824 151 24669ft 468kts
14-Feb-21 21:03 34.310799 -118.899816 150 22263ft 452kts
14-Feb-21 21:04 34.197958 -118.832776 162 19841ft 437kts
14-Feb-21 21:05 34.083263 -118.788029 163 18067ft 431kts
14-Feb-21 21:06 33.970285 -118.744214 163 16312ft 418kts
14-Feb-21 21:07 33.863720 -118.703105 163 14691ft 401kts
14-Feb-21 21:08 33.759139 -118.662839 162 13074ft 389kts
14-Feb-21 21:09 33.657204 -118.626385 164 11651ft 378kts
14-Feb-21 21:10 33.572826 -118.567960 114 10141ft 328kts
14-Feb-21 21:11 33.529282 -118.479799 113 8953ft 300kts
14-Feb-21 21:12 33.519323 -118.387333 84 7713ft 277kts
14-Feb-21 21:13 33.528211 -118.298825 63 6786ft 264kts
14-Feb-21 21:13 33.550072 -118.231695 64 5775ft 259kts
14-Feb-21 21:14 33.579609 -118.155237 51 4980ft 233kts
14-Feb-21 21:16 33.619324 -118.084331 51 4983ft 217kts
14-Feb-21 21:16 33.647327 -118.034025 51 4981ft 217kts
14-Feb-21 21:17 33.681051 -117.973351 51 4988ft 218kts
14-Feb-21 21:19 33.733311 -117.922038 23 4292ft 208kts
14-Feb-21 21:19 33.776793 -117.894729 28 3320ft 213kts
14-Feb-21 21:20 33.781474 -117.832756 135 2252ft 207kts
14-Feb-21 21:21 33.733779 -117.831228 211 1163ft 158kts
14-Feb-21 21:22 33.698924 -117.853991 207 471ft 139kts
14-Feb-21 21:23 33.671036 -117.871750 207 65ft 37kts
14-Feb-21 21:24 33.669065 -117.871471 114 65ft 2kts
14-Feb-21 21:25 33.670452 -117.869529 39 65ft 13kts
14-Feb-21 21:26 33.674123 -117.866451 28 65ft 16kts
14-Feb-21 21:27 33.675301 -117.864941 116 65ft 0kts

Navigation Log

Ident Type
Flight plan parsing failed, navigation log unavailable